Time,TemperatureF,DewpointF,PressureIn,WindDirection,WindDirectionDegrees,WindSpeedMPH,WindSpeedGustMPH,Humidity,HourlyPrecipIn,Conditions,Clouds,dailyrainin,SoftwareType,DateUTC
2013-09-24 00:07:00,57.2,56.6,29.92,ESE,112,0.0,-999.0,98,-99.99,,,0.00,Acu-Link.com,2013-09-24 07:07:00,
2013-09-24 00:22:00,57.2,56.6,29.93,SW,225,0.0,-999.0,98,-99.99,,,0.00,Acu-Link.com,2013-09-24 07:22:00,
2013-09-24 00:37:00,57.4,56.8,29.91,WSW,247,0.0,-999.0,98,-99.99,,,0.00,Acu-Link.com,2013-09-24 07:37:00,
2013-09-24 00:53:00,57.6,57.0,29.91,WSW,247,0.0,-999.0,98,-99.99,,,0.00,Acu-Link.com,2013-09-24 07:53:00,
2013-09-24 01:09:00,57.6,57.0,29.93,SSE,157,0.0,-999.0,98,-99.99,,,0.00,Acu-Link.com,2013-09-24 08:09:00,
2013-09-24 01:24:00,57.6,57.0,29.93,SSE,157,0.0,-999.0,98,-99.99,,,0.00,Acu-Link.com,2013-09-24 08:24:00,
2013-09-24 01:39:00,57.4,56.8,29.91,SE,135,0.0,-999.0,98,-99.99,,,0.00,Acu-Link.com,2013-09-24 08:39:00,
2013-09-24 01:54:00,57.4,56.8,29.92,SE,135,0.0,-999.0,98,-99.99,,,0.00,Acu-Link.com,2013-09-24 08:54:00,
2013-09-24 02:09:00,57.4,56.8,29.91,SSE,157,0.0,-999.0,98,-99.99,,,0.00,Acu-Link.com,2013-09-24 09:09:00,
2013-09-24 02:24:00,57.6,57.0,29.92,SSE,157,2.2,-999.0,98,-99.99,,,0.00,Acu-Link.com,2013-09-24 09:24:00,
2013-09-24 02:39:00,57.0,56.4,29.91,SSE,157,0.0,-999.0,98,-99.99,,,0.00,Acu-Link.com,2013-09-24 09:39:00,
2013-09-24 02:54:00,56.7,56.1,29.91,SE,135,0.0,-999.0,98,-99.99,,,0.00,Acu-Link.com,2013-09-24 09:54:00,
2013-09-24 03:10:00,56.5,55.9,29.91,SE,135,0.0,-999.0,98,-99.99,,,0.00,Acu-Link.com,2013-09-24 10:10:00,
2013-09-24 03:25:00,56.5,55.9,29.91,SE,135,0.0,-999.0,98,-99.99,,,0.00,Acu-Link.com,2013-09-24 10:25:00,
2013-09-24 03:40:00,56.3,55.7,29.91,SE,135,0.0,-999.0,98,-99.99,,,0.00,Acu-Link.com,2013-09-24 10:40:00,
2013-09-24 03:56:00,56.3,55.7,29.90,SSE,157,0.0,-999.0,98,-99.99,,,0.00,Acu-Link.com,2013-09-24 10:56:00,
2013-09-24 04:11:00,56.5,55.9,29.90,West,270,0.0,-999.0,98,-99.99,,,0.00,Acu-Link.com,2013-09-24 11:11:00,
2013-09-24 04:26:00,56.5,55.9,29.91,SE,135,0.0,-999.0,98,-99.99,,,0.00,Acu-Link.com,2013-09-24 11:26:00,
2013-09-24 04:42:00,56.5,55.9,29.91,ESE,112,0.0,-999.0,98,-99.99,,,0.00,Acu-Link.com,2013-09-24 11:42:00,
2013-09-24 04:57:00,56.3,55.7,29.91,ESE,112,0.0,-999.0,98,-99.99,,,0.00,Acu-Link.com,2013-09-24 11:57:00,
2013-09-24 05:12:00,56.3,55.7,29.91,SE,135,0.0,-999.0,98,-99.99,,,0.00,Acu-Link.com,2013-09-24 12:12:00,
2013-09-24 05:27:00,56.1,55.5,29.91,ESE,112,0.0,-999.0,98,-99.99,,,0.00,Acu-Link.com,2013-09-24 12:27:00,
2013-09-24 05:43:00,56.1,55.5,29.90,SE,135,0.0,-999.0,98,-99.99,,,0.00,Acu-Link.com,2013-09-24 12:43:00,
2013-09-24 05:58:00,55.9,55.3,29.90,ESE,112,0.0,-999.0,98,-99.99,,,0.00,Acu-Link.com,2013-09-24 12:58:00,
2013-09-24 06:13:00,55.9,55.3,29.91,ESE,112,0.0,-999.0,98,-99.99,,,0.00,Acu-Link.com,2013-09-24 13:13:00,
2013-09-24 06:29:00,55.8,55.2,29.91,SE,135,0.0,-999.0,98,-99.99,,,0.00,Acu-Link.com,2013-09-24 13:29:00,
2013-09-24 06:44:00,55.4,54.8,29.91,ESE,112,0.0,-999.0,98,-99.99,,,0.00,Acu-Link.com,2013-09-24 13:44:00,
2013-09-24 06:59:00,55.2,54.6,29.91,SE,135,0.0,-999.0,98,-99.99,,,0.00,Acu-Link.com,2013-09-24 13:59:00,
2013-09-24 07:14:00,55.2,54.6,29.91,SSE,157,0.0,-999.0,98,-99.99,,,0.00,Acu-Link.com,2013-09-24 14:14:00,
2013-09-24 07:30:00,55.4,54.8,29.91,SSW,202,0.0,-999.0,98,-99.99,,,0.00,Acu-Link.com,2013-09-24 14:30:00,
2013-09-24 07:45:00,55.4,54.8,29.92,ESE,112,0.0,-999.0,98,-99.99,,,0.00,Acu-Link.com,2013-09-24 14:45:00,
2013-09-24 08:00:00,55.6,55.0,29.92,SSW,202,0.0,-999.0,98,-99.99,,,0.00,Acu-Link.com,2013-09-24 15:00:00,
2013-09-24 08:15:00,56.1,55.5,29.92,SSE,157,0.0,-999.0,98,-99.99,,,0.00,Acu-Link.com,2013-09-24 15:15:00,
2013-09-24 08:31:00,56.5,55.9,29.92,South,180,0.0,-999.0,98,-99.99,,,0.00,Acu-Link.com,2013-09-24 15:31:00,
2013-09-24 08:46:00,56.8,56.2,29.93,West,270,0.0,-999.0,98,-99.99,,,0.00,Acu-Link.com,2013-09-24 15:46:00,
2013-09-24 09:01:00,57.0,56.4,29.93,SSW,202,0.0,-999.0,98,-99.99,,,0.00,Acu-Link.com,2013-09-24 16:01:00,
2013-09-24 09:16:00,57.7,57.1,29.93,SSW,202,0.0,-999.0,98,-99.99,,,0.00,Acu-Link.com,2013-09-24 16:16:00,
2013-09-24 09:31:00,58.5,57.9,29.93,SW,225,2.2,-999.0,98,-99.99,,,0.00,Acu-Link.com,2013-09-24 16:31:00,
2013-09-24 09:47:00,58.5,57.9,29.94,South,180,1.7,-999.0,98,-99.99,,,0.00,Acu-Link.com,2013-09-24 16:47:00,
2013-09-24 10:02:00,62.1,59.7,29.93,SW,225,1.1,-999.0,92,-99.99,,,0.00,Acu-Link.com,2013-09-24 17:02:00,
2013-09-24 10:17:00,61.0,57.4,29.94,WSW,247,2.2,-999.0,88,-99.99,,,0.00,Acu-Link.com,2013-09-24 17:17:00,
2013-09-24 10:33:00,61.3,56.1,29.93,North,0,1.7,-999.0,83,-99.99,,,0.00,Acu-Link.com,2013-09-24 17:33:00,
2013-09-24 10:48:00,61.0,55.1,29.93,WSW,247,3.2,-999.0,81,-99.99,,,0.00,Acu-Link.com,2013-09-24 17:48:00,
2013-09-24 11:03:00,61.0,54.1,29.94,SW,225,1.7,-999.0,78,-99.99,,,0.00,Acu-Link.com,2013-09-24 18:03:00,
2013-09-24 11:19:00,62.6,55.3,29.94,SW,225,7.8,-999.0,77,-99.99,,,0.00,Acu-Link.com,2013-09-24 18:19:00,
2013-09-24 11:34:00,62.4,54.4,29.92,West,270,6.8,-999.0,75,-99.99,,,0.00,Acu-Link.com,2013-09-24 18:34:00,
2013-09-24 11:49:00,63.1,53.9,29.92,SW,225,6.3,-999.0,72,-99.99,,,0.00,Acu-Link.com,2013-09-24 18:49:00,
2013-09-24 12:04:00,64.2,54.2,29.92,WSW,247,5.8,-999.0,70,-99.99,,,0.00,Acu-Link.com,2013-09-24 19:04:00,
2013-09-24 12:19:00,64.2,53.0,29.92,WSW,247,5.8,-999.0,67,-99.99,,,0.00,Acu-Link.com,2013-09-24 19:19:00,
2013-09-24 12:34:00,65.3,53.2,29.91,SW,225,11.9,-999.0,65,-99.99,,,0.00,Acu-Link.com,2013-09-24 19:34:00,
2013-09-24 12:49:00,64.8,51.9,29.91,West,270,7.8,-999.0,63,-99.99,,,0.00,Acu-Link.com,2013-09-24 19:49:00,
2013-09-24 13:05:00,64.2,52.2,29.91,WSW,247,3.2,-999.0,65,-99.99,,,0.00,Acu-Link.com,2013-09-24 20:05:00,
2013-09-24 13:20:00,63.9,52.3,29.91,SW,225,5.3,-999.0,66,-99.99,,,0.00,Acu-Link.com,2013-09-24 20:20:00,
2013-09-24 13:35:00,62.8,50.9,29.91,SW,225,5.8,-999.0,65,-99.99,,,0.00,Acu-Link.com,2013-09-24 20:35:00,
2013-09-24 13:50:00,62.6,53.1,29.90,SW,225,5.3,-999.0,71,-99.99,,,0.00,Acu-Link.com,2013-09-24 20:50:00,
2013-09-24 14:06:00,62.8,54.0,29.91,ENE,67,7.3,-999.0,73,-99.99,,,0.00,Acu-Link.com,2013-09-24 21:06:00,
2013-09-24 14:21:00,62.1,53.3,29.91,WSW,247,4.7,-999.0,73,-99.99,,,0.00,Acu-Link.com,2013-09-24 21:21:00,
2013-09-24 14:36:00,60.6,54.7,29.90,WSW,247,3.7,-999.0,81,-99.99,,,0.00,Acu-Link.com,2013-09-24 21:36:00,
2013-09-24 14:51:00,60.4,53.9,29.92,SW,225,6.3,-999.0,79,-99.99,,,0.00,Acu-Link.com,2013-09-24 21:51:00,
2013-09-24 15:06:00,61.2,53.6,29.89,SW,225,7.3,-999.0,76,-99.99,,,0.00,Acu-Link.com,2013-09-24 22:06:00,
2013-09-24 15:22:00,62.2,53.4,29.89,WSW,247,5.3,-999.0,73,-99.99,,,0.00,Acu-Link.com,2013-09-24 22:22:00,
2013-09-24 15:37:00,62.8,53.6,29.88,North,0,5.8,-999.0,72,-99.99,,,0.00,Acu-Link.com,2013-09-24 22:37:00,
2013-09-24 15:52:00,62.1,53.3,29.88,West,270,4.7,-999.0,73,-99.99,,,0.00,Acu-Link.com,2013-09-24 22:52:00,
2013-09-24 16:07:00,61.7,53.0,29.89,SSE,157,7.3,-999.0,73,-99.99,,,0.00,Acu-Link.com,2013-09-24 23:07:00,
2013-09-24 16:22:00,61.3,52.9,29.88,South,180,3.2,-999.0,74,-99.99,,,0.00,Acu-Link.com,2013-09-24 23:22:00,
2013-09-24 16:37:00,61.3,53.3,29.88,SW,225,4.7,-999.0,75,-99.99,,,0.00,Acu-Link.com,2013-09-24 23:37:00,
2013-09-24 16:52:00,60.6,53.3,29.89,WSW,247,6.3,-999.0,77,-99.99,,,0.00,Acu-Link.com,2013-09-24 23:52:00,
2013-09-24 17:07:00,60.6,53.7,29.88,WSW,247,7.8,-999.0,78,-99.99,,,0.00,Acu-Link.com,2013-09-25 00:07:00,
2013-09-24 17:22:00,59.7,53.2,29.87,South,180,6.3,-999.0,79,-99.99,,,0.00,Acu-Link.com,2013-09-25 00:22:00,
2013-09-24 17:37:00,59.2,53.4,29.87,West,270,4.2,-999.0,81,-99.99,,,0.00,Acu-Link.com,2013-09-25 00:37:00,
2013-09-24 17:53:00,53.8,51.8,29.88,SW,225,4.7,-999.0,93,-99.99,,,0.18,Acu-Link.com,2013-09-25 00:53:00,
2013-09-24 18:08:00,53.6,52.2,29.88,SSW,202,2.7,-999.0,95,-99.99,,,0.26,Acu-Link.com,2013-09-25 01:08:00,
2013-09-24 18:23:00,53.8,52.1,29.87,SW,225,0.0,-999.0,94,-99.99,,,0.30,Acu-Link.com,2013-09-25 01:23:00,
2013-09-24 18:38:00,53.6,53.0,29.87,East,90,0.0,-999.0,98,-99.99,,,0.30,Acu-Link.com,2013-09-25 01:38:00,
2013-09-24 18:53:00,53.1,52.5,29.88,SE,135,0.0,-999.0,98,-99.99,,,0.30,Acu-Link.com,2013-09-25 01:53:00,
2013-09-24 19:09:00,52.5,52.0,29.86,ESE,112,0.0,-999.0,98,-99.99,,,0.30,Acu-Link.com,2013-09-25 02:09:00,
2013-09-24 19:24:00,52.2,51.7,29.87,SSE,157,0.0,-999.0,98,-99.99,,,0.30,Acu-Link.com,2013-09-25 02:24:00,
2013-09-24 19:39:00,52.2,51.7,29.87,SSE,157,0.0,-999.0,98,-99.99,,,0.30,Acu-Link.com,2013-09-25 02:39:00,
2013-09-24 19:55:00,52.0,51.5,29.87,WSW,247,0.0,-999.0,98,-99.99,,,0.32,Acu-Link.com,2013-09-25 02:55:00,
2013-09-24 20:10:00,51.4,50.9,29.87,ESE,112,0.0,-999.0,98,-99.99,,,0.34,Acu-Link.com,2013-09-25 03:10:00,
2013-09-24 20:25:00,51.4,50.9,29.86,South,180,0.0,-999.0,98,-99.99,,,0.37,Acu-Link.com,2013-09-25 03:25:00,
2013-09-24 20:41:00,51.3,50.8,29.86,North,0,0.0,-999.0,98,-99.99,,,0.37,Acu-Link.com,2013-09-25 03:41:00,
2013-09-24 20:56:00,51.3,50.8,29.86,SE,135,0.0,-999.0,98,-99.99,,,0.38,Acu-Link.com,2013-09-25 03:56:00,
2013-09-24 21:11:00,51.3,50.8,29.87,NNW,337,0.0,-999.0,98,-99.99,,,0.38,Acu-Link.com,2013-09-25 04:11:00,
2013-09-24 21:26:00,51.3,50.8,29.87,NNE,22,3.2,-999.0,98,-99.99,,,0.43,Acu-Link.com,2013-09-25 04:26:00,
2013-09-24 21:41:00,51.4,50.9,29.87,South,180,0.0,-999.0,98,-99.99,,,0.56,Acu-Link.com,2013-09-25 04:41:00,
2013-09-24 21:57:00,51.3,50.8,29.87,NE,45,2.7,-999.0,98,-99.99,,,0.80,Acu-Link.com,2013-09-25 04:57:00,
2013-09-24 22:12:00,51.3,50.8,29.87,ESE,112,0.0,-999.0,98,-99.99,,,0.81,Acu-Link.com,2013-09-25 05:12:00,
2013-09-24 22:27:00,50.9,50.4,29.87,SSW,202,0.0,-999.0,98,-99.99,,,0.81,Acu-Link.com,2013-09-25 05:27:00,
2013-09-24 22:43:00,50.5,50.0,29.87,ESE,112,0.0,-999.0,98,-99.99,,,0.81,Acu-Link.com,2013-09-25 05:43:00,
2013-09-24 22:58:00,50.4,49.9,29.87,West,270,0.0,-999.0,98,-99.99,,,0.81,Acu-Link.com,2013-09-25 05:58:00,
2013-09-24 23:13:00,50.2,49.7,29.87,NNW,337,0.0,-999.0,98,-99.99,,,0.81,Acu-Link.com,2013-09-25 06:13:00,
2013-09-24 23:29:00,50.4,49.9,29.87,NNE,22,0.0,-999.0,98,-99.99,,,0.81,Acu-Link.com,2013-09-25 06:29:00,
2013-09-24 23:44:00,50.0,49.5,29.87,SE,135,0.0,-999.0,98,-99.99,,,0.83,Acu-Link.com,2013-09-25 06:44:00,
2013-09-24 23:59:00,49.5,49.0,29.87,NW,315,4.2,-999.0,98,-99.99,,,0.83,Acu-Link.com,2013-09-25 06:59:00,